KWLD/WLD METAR and TAF weather

Enter ICAO airport designator
Station Type Date Time Source
KWLD METAR 2021/09/16 10:54 UTC NOAA

KWLD 161054Z AUTO 09003KT 10SM CLR 20/17 A2995 RMK AO2 SLP130 T02000167


Station Type Date Time Source
KWLD Decoded METAR 2021/09/16 10:54 UTC NOAA

STROTHER FIELD, KS, United States (KWLD) 37-10N 97-02W 350M
Sep 16, 2021 - 06:54 AM EDT / 2021.09.16 1054 UTC
Wind: from the E (090 degrees) at 3 MPH (3 KT):0
Visibility: 10 mile(s):0
Sky conditions: clear
Temperature: 68.0 F (20.0 C)
Dew Point: 62.1 F (16.7 C)
Relative Humidity: 81%
Pressure (altimeter): 29.95 in. Hg (1014 hPa)
ob: KWLD 161054Z AUTO 09003KT 10SM CLR 20/17 A2995 RMK AO2 SLP130 T02000167
cycle: 11

Station Type Date Time Source
KWLD TAF UTC NOAA

Error!

Example: see airport list